»·PEaware :: N728CS KJAC-KHND

N728CS :: KJAC-KHND

FLIGHT INFORMATION

Flight Status: Arrived
Operator: Privately registered:
United States
More flights under this callsign
Pilot: Chandler S. (807)
Aircraft: Unknown
(E35L)
More flights by this aircraft type
Origin: KJAC Jackson Hole
United States
Destination: KHND Henderson
United States
More flights between these airports :: More routes between these airports
Route: ALPIN2 KICNE FFU J9 MLF LUXOR2
File this flight plan on PilotEdge
Remarks:
Altitude:
(Current/Filed)
36,000ft
Speed:
(Current/Filed)
300kts
Departed: 25-May-19 08:15 PM
Arrived: 25-May-19 09:34 PM
Distance/Time
Traveled:
501nm/1:18
Distance/Time
To Go:
Arrived

Flight Plot

Page will automatically refresh every two minutes.

Flight plan parsing failed; only flown route is shown


Map Options




Map Legend


Flown Route
Filed Route
Departure Airport
Arrival Airport
Navaid (VOR, NDB)
Fix

Horizontal Profiles

Position Reports

Time Latitude Longitude Heading Altitude Ground
Speed
25-May-19 20:01 43.599330 -110.738693 285 6458ft 0kts
25-May-19 20:02 43.599330 -110.738693 285 6458ft 0kts
25-May-19 20:03 43.599330 -110.738693 285 6458ft 0kts
25-May-19 20:04 43.599330 -110.738693 285 6458ft 0kts
25-May-19 20:05 43.599330 -110.738693 285 6458ft 0kts
25-May-19 20:06 43.599330 -110.738693 285 6458ft 0kts
25-May-19 20:07 43.599330 -110.738693 285 6458ft 0kts
25-May-19 20:08 43.599330 -110.738693 285 6458ft 0kts
25-May-19 20:09 43.599900 -110.739095 309 6458ft 11kts
25-May-19 20:10 43.603037 -110.738242 18 6458ft 13kts
25-May-19 20:11 43.607908 -110.735888 18 6458ft 22kts
25-May-19 20:12 43.614001 -110.732943 19 6458ft 21kts
25-May-19 20:13 43.614490 -110.734339 198 6458ft 36kts
25-May-19 20:14 43.575913 -110.755992 210 7881ft 218kts
25-May-19 20:15 43.512903 -110.798622 203 11074ft 284kts
25-May-19 20:16 43.438377 -110.846765 204 14539ft 315kts
25-May-19 20:17 43.349011 -110.904340 204 15000ft 368kts
25-May-19 20:18 43.255881 -110.964188 204 17830ft 379kts
25-May-19 20:19 43.155121 -111.009554 193 21372ft 386kts
25-May-19 20:20 43.051586 -111.044550 194 24841ft 382kts
25-May-19 20:21 42.950674 -111.078534 194 28277ft 367kts
25-May-19 20:22 42.851796 -111.111744 195 31475ft 366kts
25-May-19 20:23 42.754431 -111.144328 195 34667ft 353kts
25-May-19 20:24 42.658134 -111.176483 195 36007ft 380kts
25-May-19 20:25 42.575144 -111.204084 195 36008ft 425kts
25-May-19 20:26 42.468507 -111.239430 195 35997ft 457kts
25-May-19 20:27 42.344951 -111.280238 195 35986ft 455kts
25-May-19 20:28 42.222553 -111.320505 195 35984ft 454kts
25-May-19 20:29 42.100355 -111.360549 195 35943ft 454kts
25-May-19 20:30 41.977646 -111.400599 195 35926ft 453kts
25-May-19 20:31 41.854965 -111.440476 195 35938ft 453kts
25-May-19 20:32 41.732454 -111.480145 195 35940ft 454kts
25-May-19 20:33 41.610179 -111.519584 195 35959ft 454kts
25-May-19 20:34 41.487474 -111.559003 195 35949ft 454kts
25-May-19 20:35 41.365148 -111.598144 195 35936ft 454kts
25-May-19 20:36 41.242429 -111.637276 195 35936ft 454kts
25-May-19 20:37 41.119430 -111.676339 194 35941ft 454kts
25-May-19 20:38 40.997209 -111.714985 194 35939ft 453kts
25-May-19 20:39 40.875764 -111.753271 195 35940ft 452kts
25-May-19 20:40 40.753528 -111.791650 195 35923ft 453kts
25-May-19 20:41 40.630936 -111.829991 195 35920ft 453kts
25-May-19 20:42 40.508173 -111.868241 195 35913ft 453kts
25-May-19 20:43 40.385750 -111.906250 195 35909ft 453kts
25-May-19 20:44 40.264317 -111.947202 204 35889ft 451kts
25-May-19 20:45 40.149127 -112.013010 204 35904ft 451kts
25-May-19 20:46 40.034464 -112.078827 204 35901ft 451kts
25-May-19 20:47 39.920151 -112.144212 204 35900ft 450kts
25-May-19 20:48 39.805091 -112.209779 204 35912ft 451kts
25-May-19 20:49 39.690639 -112.274753 204 35909ft 451kts
25-May-19 20:50 39.575263 -112.340023 204 35908ft 451kts
25-May-19 20:51 39.460571 -112.404659 204 35905ft 451kts
25-May-19 20:52 39.345340 -112.469387 204 35903ft 451kts
25-May-19 20:53 39.231360 -112.533169 204 35901ft 451kts
25-May-19 20:54 39.115600 -112.597702 204 35899ft 451kts
25-May-19 20:55 39.000196 -112.661800 204 35903ft 450kts
25-May-19 20:56 38.886093 -112.724977 204 35902ft 445kts
25-May-19 20:57 38.772768 -112.787519 204 35896ft 443kts
25-May-19 20:58 38.659276 -112.849922 204 35894ft 443kts
25-May-19 20:59 38.545359 -112.912331 204 35891ft 442kts
25-May-19 21:00 38.432763 -112.973812 204 35889ft 442kts
25-May-19 21:01 38.320406 -113.037860 206 35888ft 442kts
25-May-19 21:02 38.209847 -113.105809 206 35886ft 442kts
25-May-19 21:03 38.099239 -113.173592 206 35891ft 441kts
25-May-19 21:04 37.994717 -113.237439 206 35906ft 441kts
25-May-19 21:05 37.891168 -113.300445 206 35912ft 441kts
25-May-19 21:06 37.780375 -113.367669 206 35916ft 442kts
25-May-19 21:07 37.669398 -113.434801 206 35925ft 442kts
25-May-19 21:08 37.558840 -113.501447 206 35910ft 442kts
25-May-19 21:09 37.447832 -113.568113 206 35841ft 443kts
25-May-19 21:10 37.336472 -113.634783 206 35600ft 441kts
25-May-19 21:11 37.228707 -113.699116 205 34047ft 424kts
25-May-19 21:12 37.123376 -113.761799 205 32421ft 415kts
25-May-19 21:13 37.021425 -113.822262 205 31827ft 394kts
25-May-19 21:14 36.923912 -113.879934 205 31800ft 384kts
25-May-19 21:15 36.824687 -113.938454 205 30007ft 396kts
25-May-19 21:16 36.725660 -113.996697 205 27922ft 390kts
25-May-19 21:17 36.627134 -114.054465 204 25635ft 391kts
25-May-19 21:18 36.548913 -114.144025 235 23562ft 398kts
25-May-19 21:19 36.495766 -114.260065 235 21236ft 375kts
25-May-19 21:20 36.446977 -114.366947 235 18503ft 312kts
25-May-19 21:21 36.406516 -114.455019 235 15219ft 303kts
25-May-19 21:22 36.350338 -114.523192 216 11844ft 284kts
25-May-19 21:23 36.292017 -114.579437 214 11698ft 263kts
25-May-19 21:24 36.231904 -114.636009 214 9883ft 273kts
25-May-19 21:26 36.170911 -114.693018 214 7966ft 273kts
25-May-19 21:27 36.116269 -114.752587 243 6797ft 246kts
25-May-19 21:28 36.092071 -114.830181 245 6794ft 247kts
25-May-19 21:29 36.065738 -114.913796 245 5732ft 274kts
25-May-19 21:30 36.040293 -114.998386 250 4512ft 235kts
25-May-19 21:31 36.024211 -115.067859 251 4088ft 179kts
25-May-19 21:32 36.012227 -115.120721 242 3251ft 139kts
25-May-19 21:33 35.980853 -115.135279 180 2420ft 124kts
25-May-19 21:34 35.967213 -115.136085 280 2387ft 12kts
25-May-19 21:35 35.972954 -115.136400 2 2387ft 27kts
25-May-19 21:36 35.978307 -115.137606 274 2387ft 13kts
25-May-19 21:37 35.978359 -115.139841 314 2387ft 0kts

Navigation Log

Ident Type
Flight plan parsing failed, navigation log unavailable